sensor_id;sensor_type;location;lat;lon;timestamp;pressure;altitude;pressure_sealevel;temperature
85840;BMP280;76322;54.686;9.332;2024-03-06T17:20:47;102576.44;;;5.00
85840;BMP280;76322;54.686;9.332;2024-03-06T17:21:49;102579.88;;;4.97
85840;BMP280;76322;54.686;9.332;2024-03-06T17:22:51;102575.63;;;4.96
85840;BMP280;76322;54.686;9.332;2024-03-06T17:23:52;102581.03;;;4.92
85840;BMP280;76322;54.686;9.332;2024-03-06T17:24:55;102584.09;;;4.91
85840;BMP280;76322;54.686;9.332;2024-03-06T17:25:57;102584.06;;;4.87
85840;BMP280;76322;54.686;9.332;2024-03-06T17:26:59;102591.06;;;4.85
85840;BMP280;76322;54.686;9.332;2024-03-06T17:28:00;102587.56;;;4.81
85840;BMP280;76322;54.686;9.332;2024-03-06T17:29:02;102591.38;;;4.80
85840;BMP280;76322;54.686;9.332;2024-03-06T17:30:04;102584.81;;;4.77
85840;BMP280;76322;54.686;9.332;2024-03-06T17:31:06;102589.44;;;4.73
85840;BMP280;76322;54.686;9.332;2024-03-06T17:32:08;102589.03;;;4.71
85840;BMP280;76322;54.686;9.332;2024-03-06T17:33:11;102589.03;;;4.68
85840;BMP280;76322;54.686;9.332;2024-03-06T17:34:17;102593.28;;;4.65
85840;BMP280;76322;54.686;9.332;2024-03-06T17:35:19;102594.78;;;4.63
85840;BMP280;76322;54.686;9.332;2024-03-06T17:36:21;102594.41;;;4.61
85840;BMP280;76322;54.686;9.332;2024-03-06T17:37:22;102593.22;;;4.58
85840;BMP280;76322;54.686;9.332;2024-03-06T17:38:24;102595.53;;;4.56
85840;BMP280;76322;54.686;9.332;2024-03-06T17:39:27;102594.38;;;4.54
85840;BMP280;76322;54.686;9.332;2024-03-06T17:40:29;102595.88;;;4.51
85840;BMP280;76322;54.686;9.332;2024-03-06T17:41:30;102602.84;;;4.49
85840;BMP280;76322;54.686;9.332;2024-03-06T17:42:32;102602.06;;;4.48
85840;BMP280;76322;54.686;9.332;2024-03-06T17:43:34;102607.81;;;4.47
85840;BMP280;76322;54.686;9.332;2024-03-06T17:44:35;102600.09;;;4.45
85840;BMP280;76322;54.686;9.332;2024-03-06T17:45:37;102605.13;;;4.43
85840;BMP280;76322;54.686;9.332;2024-03-06T17:46:38;102612.81;;;4.41
85840;BMP280;76322;54.686;9.332;2024-03-06T17:47:40;102612.06;;;4.41
85840;BMP280;76322;54.686;9.332;2024-03-06T17:48:42;102615.13;;;4.39
85840;BMP280;76322;54.686;9.332;2024-03-06T17:49:43;102612.78;;;4.38
85840;BMP280;76322;54.686;9.332;2024-03-06T17:50:45;102610.09;;;4.38
85840;BMP280;76322;54.686;9.332;2024-03-06T17:51:48;102609.69;;;4.36
85840;BMP280;76322;54.686;9.332;2024-03-06T17:52:51;102610.84;;;4.35
85840;BMP280;76322;54.686;9.332;2024-03-06T17:53:53;102616.25;;;4.35
85840;BMP280;76322;54.686;9.332;2024-03-06T17:54:54;102610.44;;;4.33
85840;BMP280;76322;54.686;9.332;2024-03-06T17:55:56;102614.66;;;4.34
85840;BMP280;76322;54.686;9.332;2024-03-06T17:56:57;102612.78;;;4.31
85840;BMP280;76322;54.686;9.332;2024-03-06T17:58:00;102616.22;;;4.31
85840;BMP280;76322;54.686;9.332;2024-03-06T17:59:06;102613.91;;;4.30
85840;BMP280;76322;54.686;9.332;2024-03-06T18:00:08;102606.19;;;4.32
85840;BMP280;76322;54.686;9.332;2024-03-06T18:01:12;102613.16;;;4.29
85840;BMP280;76322;54.686;9.332;2024-03-06T18:02:13;102613.91;;;4.30
85840;BMP280;76322;54.686;9.332;2024-03-06T18:03:15;102608.13;;;4.28
85840;BMP280;76322;54.686;9.332;2024-03-06T18:04:18;102613.88;;;4.26
85840;BMP280;76322;54.686;9.332;2024-03-06T18:05:20;102615.44;;;4.27
85840;BMP280;76322;54.686;9.332;2024-03-06T18:06:22;102609.97;;;4.24
85840;BMP280;76322;54.686;9.332;2024-03-06T18:07:23;102609.97;;;4.24
85840;BMP280;76322;54.686;9.332;2024-03-06T18:08:25;102608.84;;;4.25
85840;BMP280;76322;54.686;9.332;2024-03-06T18:09:28;102612.69;;;4.24
85840;BMP280;76322;54.686;9.332;2024-03-06T18:10:29;102617.69;;;4.22
85840;BMP280;76322;54.686;9.332;2024-03-06T18:11:31;102621.53;;;4.21
85840;BMP280;76322;54.686;9.332;2024-03-06T18:12:33;102610.72;;;4.21
85840;BMP280;76322;54.686;9.332;2024-03-06T18:13:35;102615.75;;;4.19
85840;BMP280;76322;54.686;9.332;2024-03-06T18:14:36;102621.94;;;4.19
85840;BMP280;76322;54.686;9.332;2024-03-06T18:15:38;102615.31;;;4.17
85840;BMP280;76322;54.686;9.332;2024-03-06T18:16:39;102622.69;;;4.16
85840;BMP280;76322;54.686;9.332;2024-03-06T18:17:42;102617.66;;;4.15
85840;BMP280;76322;54.686;9.332;2024-03-06T18:18:44;102620.34;;;4.15
85840;BMP280;76322;54.686;9.332;2024-03-06T18:19:45;102621.47;;;4.14
85840;BMP280;76322;54.686;9.332;2024-03-06T18:20:47;102620.72;;;4.13
85840;BMP280;76322;54.686;9.332;2024-03-06T18:21:48;102618.38;;;4.12
85840;BMP280;76322;54.686;9.332;2024-03-06T18:22:50;102624.91;;;4.11
85840;BMP280;76322;54.686;9.332;2024-03-06T18:23:51;102614.50;;;4.09
85840;BMP280;76322;54.686;9.332;2024-03-06T18:24:53;102623.00;;;4.08
85840;BMP280;76322;54.686;9.332;2024-03-06T18:25:54;102615.28;;;4.06
85840;BMP280;76322;54.686;9.332;2024-03-06T18:26:57;102612.94;;;4.05
85840;BMP280;76322;54.686;9.332;2024-03-06T18:27:59;102618.72;;;4.03
85840;BMP280;76322;54.686;9.332;2024-03-06T18:29:01;102615.59;;;4.01
85840;BMP280;76322;54.686;9.332;2024-03-06T18:30:03;102617.53;;;4.01
85840;BMP280;76322;54.686;9.332;2024-03-06T18:31:05;102626.78;;;4.00
85840;BMP280;76322;54.686;9.332;2024-03-06T18:32:08;102623.66;;;3.98
85840;BMP280;76322;54.686;9.332;2024-03-06T18:33:09;102619.41;;;3.97
85840;BMP280;76322;54.686;9.332;2024-03-06T18:34:11;102625.97;;;3.96
85840;BMP280;76322;54.686;9.332;2024-03-06T18:35:12;102625.56;;;3.94
85840;BMP280;76322;54.686;9.332;2024-03-06T18:36:14;102629.41;;;3.93
85840;BMP280;76322;54.686;9.332;2024-03-06T18:37:15;102627.06;;;3.91
85840;BMP280;76322;54.686;9.332;2024-03-06T18:38:17;102624.78;;;3.90
85840;BMP280;76322;54.686;9.332;2024-03-06T18:39:18;102624.34;;;3.88
85840;BMP280;76322;54.686;9.332;2024-03-06T18:40:20;102628.59;;;3.85
85840;BMP280;76322;54.686;9.332;2024-03-06T18:41:21;102628.59;;;3.85
85840;BMP280;76322;54.686;9.332;2024-03-06T18:42:23;102628.19;;;3.83
85840;BMP280;76322;54.686;9.332;2024-03-06T18:43:25;102625.06;;;3.81
85840;BMP280;76322;54.686;9.332;2024-03-06T18:44:27;102627.34;;;3.79
85840;BMP280;76322;54.686;9.332;2024-03-06T18:45:28;102628.88;;;3.77
85840;BMP280;76322;54.686;9.332;2024-03-06T18:46:30;102626.53;;;3.75
85840;BMP280;76322;54.686;9.332;2024-03-06T18:47:33;102634.22;;;3.73
85840;BMP280;76322;54.686;9.332;2024-03-06T18:48:35;102629.22;;;3.72
85840;BMP280;76322;54.686;9.332;2024-03-06T18:49:37;102639.59;;;3.70
85840;BMP280;76322;54.686;9.332;2024-03-06T18:50:38;102638.44;;;3.67
85840;BMP280;76322;54.686;9.332;2024-03-06T18:51:46;102632.63;;;3.65
85840;BMP280;76322;54.686;9.332;2024-03-06T18:52:57;102641.88;;;3.64
85840;BMP280;76322;54.686;9.332;2024-03-06T18:53:58;102637.97;;;3.62
85840;BMP280;76322;54.686;9.332;2024-03-06T18:55:00;102637.22;;;3.61
85840;BMP280;76322;54.686;9.332;2024-03-06T18:56:01;102636.81;;;3.59
85840;BMP280;76322;54.686;9.332;2024-03-06T18:57:03;102637.53;;;3.56
85840;BMP280;76322;54.686;9.332;2024-03-06T18:58:04;102633.28;;;3.55
85840;BMP280;76322;54.686;9.332;2024-03-06T18:59:06;102639.84;;;3.54
85840;BMP280;76322;54.686;9.332;2024-03-06T19:00:08;102640.22;;;3.53
85840;BMP280;76322;54.686;9.332;2024-03-06T19:01:12;102649.44;;;3.52
85840;BMP280;76322;54.686;9.332;2024-03-06T19:02:14;102646.34;;;3.50
85840;BMP280;76322;54.686;9.332;2024-03-06T19:03:15;102640.94;;;3.50
85840;BMP280;76322;54.686;9.332;2024-03-06T19:04:17;102641.66;;;3.47
85840;BMP280;76322;54.686;9.332;2024-03-06T19:05:23;102640.88;;;3.46
85840;BMP280;76322;54.686;9.332;2024-03-06T19:06:24;102643.19;;;3.44
85840;BMP280;76322;54.686;9.332;2024-03-06T19:07:27;102649.34;;;3.45
85840;BMP280;76322;54.686;9.332;2024-03-06T19:08:28;102644.72;;;3.42
85840;BMP280;76322;54.686;9.332;2024-03-06T19:09:30;102647.78;;;3.40
85840;BMP280;76322;54.686;9.332;2024-03-06T19:10:31;102648.56;;;3.41
85840;BMP280;76322;54.686;9.332;2024-03-06T19:11:33;102648.13;;;3.39
85840;BMP280;76322;54.686;9.332;2024-03-06T19:12:34;102647.38;;;3.38
85840;BMP280;76322;54.686;9.332;2024-03-06T19:13:36;102647.38;;;3.38
85840;BMP280;76322;54.686;9.332;2024-03-06T19:14:40;102649.28;;;3.38
85840;BMP280;76322;54.686;9.332;2024-03-06T19:15:42;102647.31;;;3.35
85840;BMP280;76322;54.686;9.332;2024-03-06T19:16:44;102652.34;;;3.36
85840;BMP280;76322;54.686;9.332;2024-03-06T19:17:45;102646.19;;;3.36
85840;BMP280;76322;54.686;9.332;2024-03-06T19:18:48;102648.53;;;3.37
85840;BMP280;76322;54.686;9.332;2024-03-06T19:19:50;102637.31;;;3.35
85840;BMP280;76322;54.686;9.332;2024-03-06T19:20:53;102652.72;;;3.35
85840;BMP280;76322;54.686;9.332;2024-03-06T19:21:54;102654.66;;;3.34
85840;BMP280;76322;54.686;9.332;2024-03-06T19:22:57;102649.25;;;3.34
85840;BMP280;76322;54.686;9.332;2024-03-06T19:23:59;102648.47;;;3.34
85840;BMP280;76322;54.686;9.332;2024-03-06T19:25:00;102652.31;;;3.33
85840;BMP280;76322;54.686;9.332;2024-03-06T19:26:02;102649.19;;;3.31
85840;BMP280;76322;54.686;9.332;2024-03-06T19:27:04;102654.97;;;3.29
85840;BMP280;76322;54.686;9.332;2024-03-06T19:28:06;102658.44;;;3.30
85840;BMP280;76322;54.686;9.332;2024-03-06T19:29:07;102660.00;;;3.31
85840;BMP280;76322;54.686;9.332;2024-03-06T19:30:10;102664.97;;;3.29
85840;BMP280;76322;54.686;9.332;2024-03-06T19:31:11;102659.56;;;3.29
85840;BMP280;76322;54.686;9.332;2024-03-06T19:32:14;102660.72;;;3.28
85840;BMP280;76322;54.686;9.332;2024-03-06T19:33:16;102673.06;;;3.29
85840;BMP280;76322;54.686;9.332;2024-03-06T19:34:18;102659.56;;;3.29
85840;BMP280;76322;54.686;9.332;2024-03-06T19:35:20;102672.28;;;3.28
85840;BMP280;76322;54.686;9.332;2024-03-06T19:36:23;102664.19;;;3.28
85840;BMP280;76322;54.686;9.332;2024-03-06T19:37:25;102666.91;;;3.28
85840;BMP280;76322;54.686;9.332;2024-03-06T19:38:28;102668.81;;;3.28
85840;BMP280;76322;54.686;9.332;2024-03-06T19:39:29;102668.03;;;3.27
85840;BMP280;76322;54.686;9.332;2024-03-06T19:40:31;102669.16;;;3.26
85840;BMP280;76322;54.686;9.332;2024-03-06T19:41:32;102671.09;;;3.26
85840;BMP280;76322;54.686;9.332;2024-03-06T19:42:36;102665.72;;;3.26
85840;BMP280;76322;54.686;9.332;2024-03-06T19:43:37;102671.09;;;3.26
85840;BMP280;76322;54.686;9.332;2024-03-06T19:44:40;102669.97;;;3.27
85840;BMP280;76322;54.686;9.332;2024-03-06T19:45:42;102671.09;;;3.26
85840;BMP280;76322;54.686;9.332;2024-03-06T19:46:43;102677.63;;;3.25
85840;BMP280;76322;54.686;9.332;2024-03-06T19:47:45;102678.41;;;3.25
85840;BMP280;76322;54.686;9.332;2024-03-06T19:48:46;102676.88;;;3.24
85840;BMP280;76322;54.686;9.332;2024-03-06T19:49:48;102678.78;;;3.24
85840;BMP280;76322;54.686;9.332;2024-03-06T19:50:50;102676.88;;;3.24
85840;BMP280;76322;54.686;9.332;2024-03-06T19:51:51;102681.13;;;3.25
85840;BMP280;76322;54.686;9.332;2024-03-06T19:52:55;102676.88;;;3.24
85840;BMP280;76322;54.686;9.332;2024-03-06T19:53:56;102672.22;;;3.25
85840;BMP280;76322;54.686;9.332;2024-03-06T19:54:58;102675.72;;;3.25
85840;BMP280;76322;54.686;9.332;2024-03-06T19:56:00;102673.03;;;3.25
85840;BMP280;76322;54.686;9.332;2024-03-06T19:57:02;102673.03;;;3.25
85840;BMP280;76322;54.686;9.332;2024-03-06T19:58:06;102684.16;;;3.24
85840;BMP280;76322;54.686;9.332;2024-03-06T19:59:09;102679.19;;;3.26
85840;BMP280;76322;54.686;9.332;2024-03-06T20:00:12;102677.63;;;3.25
85840;BMP280;76322;54.686;9.332;2024-03-06T20:01:15;102685.72;;;3.25
85840;BMP280;76322;54.686;9.332;2024-03-06T20:02:17;102683.03;;;3.25
85840;BMP280;76322;54.686;9.332;2024-03-06T20:03:20;102678.41;;;3.25
85840;BMP280;76322;54.686;9.332;2024-03-06T20:04:22;102678.78;;;3.24
85840;BMP280;76322;54.686;9.332;2024-03-06T20:05:23;102686.88;;;3.24
85840;BMP280;76322;54.686;9.332;2024-03-06T20:06:25;102676.09;;;3.24
85840;BMP280;76322;54.686;9.332;2024-03-06T20:07:29;102676.09;;;3.24
85840;BMP280;76322;54.686;9.332;2024-03-06T20:08:31;102674.16;;;3.24
85840;BMP280;76322;54.686;9.332;2024-03-06T20:09:34;102675.28;;;3.23
85840;BMP280;76322;54.686;9.332;2024-03-06T20:10:37;102676.09;;;3.24
85840;BMP280;76322;54.686;9.332;2024-03-06T20:11:38;102674.16;;;3.24
85840;BMP280;76322;54.686;9.332;2024-03-06T20:12:40;102676.09;;;3.24
85840;BMP280;76322;54.686;9.332;2024-03-06T20:13:42;102681.47;;;3.24
85840;BMP280;76322;54.686;9.332;2024-03-06T20:14:43;102677.22;;;3.23
85840;BMP280;76322;54.686;9.332;2024-03-06T20:15:45;102669.13;;;3.23
85840;BMP280;76322;54.686;9.332;2024-03-06T20:16:47;102673.75;;;3.22
85840;BMP280;76322;54.686;9.332;2024-03-06T20:17:48;102682.63;;;3.23
85840;BMP280;76322;54.686;9.332;2024-03-06T20:18:50;102677.22;;;3.23
85840;BMP280;76322;54.686;9.332;2024-03-06T20:19:51;102676.09;;;3.24
85840;BMP280;76322;54.686;9.332;2024-03-06T20:20:54;102674.53;;;3.23
85840;BMP280;76322;54.686;9.332;2024-03-06T20:21:57;102677.22;;;3.23
85840;BMP280;76322;54.686;9.332;2024-03-06T20:22:59;102676.09;;;3.24
85840;BMP280;76322;54.686;9.332;2024-03-06T20:24:07;102677.22;;;3.23
85840;BMP280;76322;54.686;9.332;2024-03-06T20:25:10;102667.56;;;3.22
85840;BMP280;76322;54.686;9.332;2024-03-06T20:26:12;102672.97;;;3.22
85840;BMP280;76322;54.686;9.332;2024-03-06T20:27:13;102671.41;;;3.21
85840;BMP280;76322;54.686;9.332;2024-03-06T20:28:15;102677.22;;;3.23
85840;BMP280;76322;54.686;9.332;2024-03-06T20:29:16;102662.97;;;3.22
85840;BMP280;76322;54.686;9.332;2024-03-06T20:30:18;102665.66;;;3.22
85840;BMP280;76322;54.686;9.332;2024-03-06T20:31:19;102674.91;;;3.21
85840;BMP280;76322;54.686;9.332;2024-03-06T20:32:21;102673.75;;;3.22
85840;BMP280;76322;54.686;9.332;2024-03-06T20:33:22;102672.97;;;3.22
85840;BMP280;76322;54.686;9.332;2024-03-06T20:34:24;102675.66;;;3.22
85840;BMP280;76322;54.686;9.332;2024-03-06T20:35:26;102672.59;;;3.23
85840;BMP280;76322;54.686;9.332;2024-03-06T20:36:28;102670.25;;;3.22
85840;BMP280;76322;54.686;9.332;2024-03-06T20:37:29;102669.91;;;3.23
85840;BMP280;76322;54.686;9.332;2024-03-06T20:38:32;102674.53;;;3.23
85840;BMP280;76322;54.686;9.332;2024-03-06T20:39:34;102679.13;;;3.22
85840;BMP280;76322;54.686;9.332;2024-03-06T20:40:37;102675.28;;;3.23
85840;BMP280;76322;54.686;9.332;2024-03-06T20:41:44;102663.75;;;3.23
85840;BMP280;76322;54.686;9.332;2024-03-06T20:42:46;102672.59;;;3.23
85840;BMP280;76322;54.686;9.332;2024-03-06T20:43:48;102669.13;;;3.23
85840;BMP280;76322;54.686;9.332;2024-03-06T20:44:52;102680.69;;;3.23
85840;BMP280;76322;54.686;9.332;2024-03-06T20:45:54;102681.47;;;3.24
85840;BMP280;76322;54.686;9.332;2024-03-06T20:46:55;102673.75;;;3.22
85840;BMP280;76322;54.686;9.332;2024-03-06T20:47:57;102672.19;;;3.21
85840;BMP280;76322;54.686;9.332;2024-03-06T20:49:02;102673.75;;;3.22
85840;BMP280;76322;54.686;9.332;2024-03-06T20:50:04;102672.97;;;3.22
85840;BMP280;76322;54.686;9.332;2024-03-06T20:51:06;102674.91;;;3.21
85840;BMP280;76322;54.686;9.332;2024-03-06T20:52:10;102673.75;;;3.22
85840;BMP280;76322;54.686;9.332;2024-03-06T20:53:12;102671.41;;;3.21
85840;BMP280;76322;54.686;9.332;2024-03-06T20:54:14;102674.09;;;3.21
85840;BMP280;76322;54.686;9.332;2024-03-06T20:55:15;102682.19;;;3.21
85840;BMP280;76322;54.686;9.332;2024-03-06T20:56:19;102679.09;;;3.19
85840;BMP280;76322;54.686;9.332;2024-03-06T20:57:21;102675.25;;;3.20
85840;BMP280;76322;54.686;9.332;2024-03-06T20:58:23;102682.19;;;3.21
85840;BMP280;76322;54.686;9.332;2024-03-06T20:59:25;102679.88;;;3.19
85840;BMP280;76322;54.686;9.332;2024-03-06T21:00:27;102682.56;;;3.19
85840;BMP280;76322;54.686;9.332;2024-03-06T21:01:31;102683.75;;;3.18
85840;BMP280;76322;54.686;9.332;2024-03-06T21:02:32;102682.94;;;3.18
85840;BMP280;76322;54.686;9.332;2024-03-06T21:03:34;102682.16;;;3.17
85840;BMP280;76322;54.686;9.332;2024-03-06T21:04:39;102682.94;;;3.18
85840;BMP280;76322;54.686;9.332;2024-03-06T21:05:40;102685.66;;;3.18
85840;BMP280;76322;54.686;9.332;2024-03-06T21:06:42;102682.53;;;3.16
85840;BMP280;76322;54.686;9.332;2024-03-06T21:07:44;102678.28;;;3.15
85840;BMP280;76322;54.686;9.332;2024-03-06T21:08:45;102680.97;;;3.15
85840;BMP280;76322;54.686;9.332;2024-03-06T21:09:47;102683.69;;;3.15
85840;BMP280;76322;54.686;9.332;2024-03-06T21:10:48;102675.59;;;3.15
85840;BMP280;76322;54.686;9.332;2024-03-06T21:11:50;102677.13;;;3.16
85840;BMP280;76322;54.686;9.332;2024-03-06T21:12:52;102678.72;;;3.17
85840;BMP280;76322;54.686;9.332;2024-03-06T21:13:55;102680.63;;;3.16
85840;BMP280;76322;54.686;9.332;2024-03-06T21:14:58;102679.84;;;3.16
